Beverly Hills, West Virginia
Current Conditions -  °F | °C
As of 2:51 PM on Thursday 23 Oct 2014 (Local Time) from KHTS Reporting Station
Scattered Clouds Scattered Clouds  
Wind Chill: 58°   Ceiling: Unl
Heat Index: 58°   Visibility: 10mi
Dew Point: 42°   Wind: 0mph
Humidity: 56%   Direction: NA
Pressure: 30.16"   Gusts: NA
Location:  38.4038°N, 82.3597°W
Report Text: KHTS 231851Z 00000KT 10SM SCT036 14/06 A3016 RMK AO2 SLP211 T01440056
Loading
Personal Weather Stations






























Interactive Weather Map
Tropical Storm Tracking
New forecast layout! Learn more

10-Day Weather Forecast

Advertisements
Track Severe Weather on mobile